Time;durP1;ratioP1;P1;durP2;ratioP2;P2;SDS_P1;SDS_P2;PMS_P1;PMS_P2;Temp;Humidity;BMP_temperature;BMP_pressure;BME280_temperature;BME280_humidity;BME280_pressure;Samples;Min_cycle;Max_cycle;Signal;HPM_P1;HPM_P2
2023/03/02 00:04:48;;;;;;;;;;;;;;;19.21;32.75;95548.06;10468245;28;2059;-56
2023/03/02 00:09:48;;;;;;;;;;;;;;;19.20;32.63;95546.50;10475309;28;2376;-57
2023/03/02 00:14:49;;;;;;;;;;;;;;;19.19;32.72;95536.25;10477490;28;2007;-55
2023/03/02 00:19:50;;;;;;;;;;;;;;;19.17;32.60;95541.00;10476521;28;2213;-56
2023/03/02 00:24:50;;;;;;;;;;;;;;;19.16;32.54;95536.81;10473463;28;2035;-55
2023/03/02 00:29:51;;;;;;;;;;;;;;;19.13;32.59;95530.25;10480661;28;2378;-54
2023/03/02 00:34:52;;;;;;;;;;;;;;;19.11;32.82;95542.84;10478674;28;1983;-55
2023/03/02 00:39:52;;;;;;;;;;;;;;;19.10;32.49;95545.75;10481636;28;2005;-54
2023/03/02 00:44:52;;;;;;;;;;;;;;;19.08;32.49;95543.38;10472907;28;2007;-56
2023/03/02 00:49:53;;;;;;;;;;;;;;;19.07;32.41;95547.06;10477525;28;2076;-56
2023/03/02 00:54:54;;;;;;;;;;;;;;;19.05;32.57;95551.03;10480918;28;2003;-53
2023/03/02 00:59:54;;;;;;;;;;;;;;;19.03;32.37;95551.28;10469949;28;2076;-57
2023/03/02 01:04:54;;;;;;;;;;;;;;;19.01;32.49;95536.84;10472902;28;2054;-56
2023/03/02 01:09:55;;;;;;;;;;;;;;;19.00;32.32;95525.56;10448794;28;2046;-56
2023/03/02 01:14:55;;;;;;;;;;;;;;;18.98;32.40;95514.53;10472032;28;1976;-55
2023/03/02 01:19:55;;;;;;;;;;;;;;;18.95;32.39;95512.44;10474449;28;2035;-56
2023/03/02 01:24:57;;;;;;;;;;;;;;;18.95;32.56;95507.19;10468475;28;2173;-55
2023/03/02 01:29:57;;;;;;;;;;;;;;;18.93;32.35;95504.06;10477064;28;2150;-55
2023/03/02 01:34:59;;;;;;;;;;;;;;;18.89;32.33;95492.50;10477028;28;2082;-56
2023/03/02 01:40:05;;;;;;;;;;;;;;;18.90;32.32;95491.44;10470474;28;1945;-55
2023/03/02 01:45:25;;;;;;;;;;;;;;;18.89;32.17;95491.72;10472595;28;2149;-55
2023/03/02 01:50:28;;;;;;;;;;;;;;;18.87;32.24;95489.38;10487945;28;2058;-55
2023/03/02 01:55:30;;;;;;;;;;;;;;;18.86;32.27;95492.25;10479140;28;1993;-55
2023/03/02 02:00:32;;;;;;;;;;;;;;;18.85;32.35;95486.22;10479002;28;2083;-55
2023/03/02 02:05:34;;;;;;;;;;;;;;;18.83;32.30;95479.66;10475114;28;2062;-54
2023/03/02 02:10:34;;;;;;;;;;;;;;;18.80;32.21;95478.34;10448425;28;2046;-57
2023/03/02 02:15:34;;;;;;;;;;;;;;;18.79;32.30;95478.63;10475212;28;2412;-54
2023/03/02 02:20:36;;;;;;;;;;;;;;;18.78;32.25;95467.34;10459363;28;2193;-56
2023/03/02 02:25:51;;;;;;;;;;;;;;;18.76;32.24;95461.56;10465275;28;2054;-56
2023/03/02 02:30:55;;;;;;;;;;;;;;;18.74;32.17;95474.19;10471222;28;1986;-54
2023/03/02 02:35:59;;;;;;;;;;;;;;;18.73;32.14;95472.63;10478681;28;2027;-51
2023/03/02 02:41:00;;;;;;;;;;;;;;;18.71;32.09;95458.19;10456518;28;2060;-54
2023/03/02 02:46:01;;;;;;;;;;;;;;;18.69;32.23;95456.59;10445119;28;2072;-57
2023/03/02 02:51:02;;;;;;;;;;;;;;;18.66;32.03;95454.53;10475567;28;2050;-55
2023/03/02 02:56:02;;;;;;;;;;;;;;;18.68;32.27;95462.13;10453984;28;2021;-56
2023/03/02 03:01:03;;;;;;;;;;;;;;;18.65;32.10;95460.03;10476910;28;2055;-56
2023/03/02 03:06:04;;;;;;;;;;;;;;;18.64;32.05;95453.22;10467686;28;2150;-52
2023/03/02 03:11:05;;;;;;;;;;;;;;;18.63;32.05;95456.88;10481255;28;2084;-56
2023/03/02 03:16:05;;;;;;;;;;;;;;;18.61;32.15;95445.84;10462100;28;2014;-54
2023/03/02 03:21:06;;;;;;;;;;;;;;;18.58;32.00;95439.31;10462528;28;2105;-56
2023/03/02 03:26:06;;;;;;;;;;;;;;;18.57;32.06;95439.56;10474872;28;2039;-56
2023/03/02 03:31:07;;;;;;;;;;;;;;;18.57;31.99;95447.44;10473561;28;2043;-56
2023/03/02 03:36:07;;;;;;;;;;;;;;;18.54;32.00;95443.53;10468759;28;2023;-55
2023/03/02 03:41:08;;;;;;;;;;;;;;;18.55;31.90;95444.31;10486202;28;1983;-55
2023/03/02 03:46:08;;;;;;;;;;;;;;;18.53;31.91;95455.09;10475638;28;2135;-55
2023/03/02 03:51:09;;;;;;;;;;;;;;;18.51;31.89;95438.03;10477138;28;2040;-51
2023/03/02 03:56:09;;;;;;;;;;;;;;;18.48;31.92;95435.94;10477324;28;2042;-55
2023/03/02 04:01:09;;;;;;;;;;;;;;;18.48;31.93;95425.44;10460880;28;2059;-55
2023/03/02 04:06:17;;;;;;;;;;;;;;;18.47;31.88;95434.34;10475314;28;2062;-56
2023/03/02 04:11:18;;;;;;;;;;;;;;;18.45;31.95;95429.38;10481787;28;2003;-55
2023/03/02 04:16:19;;;;;;;;;;;;;;;18.43;32.02;95426.25;10475049;28;2184;-56
2023/03/02 04:21:20;;;;;;;;;;;;;;;18.42;31.97;95439.59;10475449;28;2096;-56
2023/03/02 04:26:20;;;;;;;;;;;;;;;18.41;31.92;95432.78;10473482;28;2116;-56
2023/03/02 04:31:22;;;;;;;;;;;;;;;18.41;31.88;95435.41;10478572;28;2191;-56
2023/03/02 04:36:23;;;;;;;;;;;;;;;18.38;31.95;95435.94;10472247;28;2017;-56
2023/03/02 04:41:24;;;;;;;;;;;;;;;18.36;31.92;95428.31;10476123;28;2066;-55
2023/03/02 04:46:25;;;;;;;;;;;;;;;18.36;31.84;95432.81;10473737;28;2093;-54
2023/03/02 04:51:27;;;;;;;;;;;;;;;18.35;31.91;95433.84;10481520;28;1984;-54
2023/03/02 04:56:27;;;;;;;;;;;;;;;18.32;31.80;95429.16;10479824;28;2104;-55
2023/03/02 05:01:29;;;;;;;;;;;;;;;18.32;31.72;95424.66;10477318;28;2159;-55
2023/03/02 05:06:31;;;;;;;;;;;;;;;18.30;31.83;95433.88;10482650;28;2119;-54
2023/03/02 05:11:31;;;;;;;;;;;;;;;18.31;31.72;95430.97;10473794;28;2034;-55
2023/03/02 05:16:33;;;;;;;;;;;;;;;18.36;31.50;95428.31;10466688;28;2114;-54
2023/03/02 05:21:34;;;;;;;;;;;;;;;18.42;31.30;95434.38;10472934;28;2121;-55
2023/03/02 05:26:35;;;;;;;;;;;;;;;18.48;31.04;95434.13;10476036;28;2084;-55
2023/03/02 05:31:36;;;;;;;;;;;;;;;18.55;31.21;95434.59;10477594;28;1979;-55
2023/03/02 05:36:37;;;;;;;;;;;;;;;18.64;31.13;95433.00;10475560;28;2072;-55
2023/03/02 05:41:37;;;;;;;;;;;;;;;18.72;31.12;95436.09;10474421;28;2103;-55
2023/03/02 05:46:39;;;;;;;;;;;;;;;18.78;31.00;95433.19;10467671;28;1997;-57
2023/03/02 05:51:39;;;;;;;;;;;;;;;18.85;30.90;95438.16;10465396;28;2048;-57
2023/03/02 05:56:40;;;;;;;;;;;;;;;18.93;30.82;95441.03;10464419;28;2087;-56
2023/03/02 06:01:40;;;;;;;;;;;;;;;19.00;30.78;95452.00;10465024;28;2014;-55
2023/03/02 06:06:40;;;;;;;;;;;;;;;19.06;30.62;95439.66;10442570;28;2241;-56
2023/03/02 06:11:41;;;;;;;;;;;;;;;19.09;30.47;95445.13;10466242;28;2045;-55
2023/03/02 06:16:41;;;;;;;;;;;;;;;19.15;30.50;95441.41;10480682;28;2171;-56
2023/03/02 06:21:41;;;;;;;;;;;;;;;19.20;30.39;95449.28;10460347;28;2101;-54
2023/03/02 06:26:42;;;;;;;;;;;;;;;19.25;30.46;95461.59;10457910;28;2473;-55
2023/03/02 06:31:43;;;;;;;;;;;;;;;19.30;30.29;95462.38;10468704;28;2046;-56
2023/03/02 06:36:43;;;;;;;;;;;;;;;19.34;30.47;95467.88;10469707;28;2044;-55
2023/03/02 06:41:44;;;;;;;;;;;;;;;19.36;30.46;95461.31;10462505;28;1995;-53
2023/03/02 06:46:44;;;;;;;;;;;;;;;19.40;30.21;95466.78;10469522;28;2349;-57
2023/03/02 06:51:44;;;;;;;;;;;;;;;19.42;30.15;95449.69;10465804;28;2147;-55
2023/03/02 06:56:45;;;;;;;;;;;;;;;19.45;30.05;95462.28;10467546;28;2154;-56
2023/03/02 07:01:48;;;;;;;;;;;;;;;19.50;30.15;95461.47;10469263;28;2045;-55
2023/03/02 07:06:49;;;;;;;;;;;;;;;19.51;30.22;95464.88;10472786;28;2050;-55
2023/03/02 07:11:53;;;;;;;;;;;;;;;19.54;30.48;95464.34;10474553;28;2009;-56
2023/03/02 07:16:56;;;;;;;;;;;;;;;19.57;30.63;95466.44;10469636;28;1991;-55
2023/03/02 07:21:56;;;;;;;;;;;;;;;19.61;30.97;95464.81;10467974;28;2008;-53
2023/03/02 07:26:56;;;;;;;;;;;;;;;19.64;30.86;95466.91;10467882;28;2063;-56
2023/03/02 07:31:59;;;;;;;;;;;;;;;19.67;31.53;95467.13;10472784;28;2080;-53
2023/03/02 07:37:00;;;;;;;;;;;;;;;19.70;31.61;95471.06;10471098;28;2019;-55
2023/03/02 07:42:00;;;;;;;;;;;;;;;19.75;31.34;95474.44;10463295;28;2106;-53
2023/03/02 07:47:01;;;;;;;;;;;;;;;19.78;31.59;95483.63;10464508;28;2412;-55
2023/03/02 07:52:02;;;;;;;;;;;;;;;19.83;31.62;95480.94;10479327;28;2027;-55
2023/03/02 07:57:02;;;;;;;;;;;;;;;19.89;31.54;95485.91;10475585;28;2071;-55
2023/03/02 08:02:03;;;;;;;;;;;;;;;19.93;31.65;95488.75;10478286;28;2007;-56
2023/03/02 08:07:13;;;;;;;;;;;;;;;19.95;31.38;95494.53;10484691;28;2042;-53
2023/03/02 08:12:13;;;;;;;;;;;;;;;19.94;31.54;95488.50;10475860;28;2071;-53
2023/03/02 08:17:14;;;;;;;;;;;;;;;19.93;31.54;95500.06;10477887;28;2125;-54
2023/03/02 08:22:15;;;;;;;;;;;;;;;19.93;31.57;95499.28;10480455;28;2060;-54
2023/03/02 08:27:15;;;;;;;;;;;;;;;19.93;31.52;95501.91;10473317;28;2233;-54
2023/03/02 08:32:16;;;;;;;;;;;;;;;19.93;31.76;95502.72;10472163;28;2013;-53
2023/03/02 08:37:17;;;;;;;;;;;;;;;19.89;31.78;95506.16;10475711;28;2180;-54
2023/03/02 08:42:18;;;;;;;;;;;;;;;19.86;31.93;95504.88;10477057;28;2079;-54
2023/03/02 08:47:19;;;;;;;;;;;;;;;19.85;31.92;95499.88;10477559;28;1999;-53
2023/03/02 08:52:20;;;;;;;;;;;;;;;19.82;32.05;95500.44;10467361;28;2062;-54
2023/03/02 08:57:20;;;;;;;;;;;;;;;19.79;31.89;95499.13;10479445;28;2043;-55
2023/03/02 09:02:20;;;;;;;;;;;;;;;19.76;31.83;95496.28;10469448;28;2015;-52
2023/03/02 09:07:21;;;;;;;;;;;;;;;19.75;32.09;95492.06;10476540;28;2042;-54
2023/03/02 09:12:22;;;;;;;;;;;;;;;19.73;32.11;95502.06;10462302;28;2367;-54
2023/03/02 09:17:22;;;;;;;;;;;;;;;19.71;32.03;95498.94;10477889;28;2113;-55
2023/03/02 09:22:23;;;;;;;;;;;;;;;19.70;32.22;95498.13;10474152;28;2147;-56
2023/03/02 09:27:23;;;;;;;;;;;;;;;19.69;32.23;95495.78;10471235;28;2079;-54
2023/03/02 09:32:25;;;;;;;;;;;;;;;19.67;32.20;95503.16;10470481;28;2011;-54
2023/03/02 09:37:26;;;;;;;;;;;;;;;19.65;32.62;95510.53;10477406;28;2119;-54
2023/03/02 09:42:29;;;;;;;;;;;;;;;19.63;32.71;95512.66;10481078;28;2041;-53
2023/03/02 09:47:33;;;;;;;;;;;;;;;19.64;32.48;95509.75;10459202;28;2147;-56
2023/03/02 09:52:34;;;;;;;;;;;;;;;19.63;32.35;95508.19;10481644;28;1991;-55
2023/03/02 09:57:35;;;;;;;;;;;;;;;19.63;32.56;95510.81;10473663;28;2244;-55
2023/03/02 10:02:36;;;;;;;;;;;;;;;19.62;32.81;95503.22;10478466;28;2058;-55
2023/03/02 10:07:37;;;;;;;;;;;;;;;19.60;32.84;95507.97;10496477;28;2176;-52
2023/03/02 10:12:49;;;;;;;;;;;;;;;19.59;32.77;95503.75;10478044;28;2336;-54
2023/03/02 10:18:28;;;;;;;;;;;;;;;19.50;32.73;95511.41;10473842;28;2290;-55
2023/03/02 10:23:42;;;;;;;;;;;;;;;19.44;32.73;95515.13;10390972;28;2368;-55
2023/03/02 10:28:48;;;;;;;;;;;;;;;19.42;32.75;95507.53;10463987;28;2297;-54
2023/03/02 10:33:48;;;;;;;;;;;;;;;19.45;32.81;95514.09;10457492;28;2352;-55
2023/03/02 10:38:49;;;;;;;;;;;;;;;19.50;32.67;95511.41;10476604;28;2023;-52
2023/03/02 10:43:50;;;;;;;;;;;;;;;19.56;32.77;95507.69;10482758;28;2410;-50
2023/03/02 10:48:58;;;;;;;;;;;;;;;19.64;32.83;95516.88;10473396;28;2270;-54
2023/03/02 10:54:04;;;;;;;;;;;;;;;19.67;32.76;95511.06;10473950;28;2364;-55
2023/03/02 10:59:11;;;;;;;;;;;;;;;19.70;33.21;95503.41;10476218;28;2027;-53
2023/03/02 11:04:13;;;;;;;;;;;;;;;19.73;33.03;95513.38;10473429;28;2409;-54
2023/03/02 11:09:13;;;;;;;;;;;;;;;19.80;33.21;95513.06;10473134;28;2313;-54
2023/03/02 11:14:14;;;;;;;;;;;;;;;19.86;33.44;95507.50;10457426;28;2317;-56
2023/03/02 11:19:16;;;;;;;;;;;;;;;19.92;33.90;95498.53;10486767;28;2340;-54
2023/03/02 11:24:20;;;;;;;;;;;;;;;19.97;34.10;95495.06;10456073;28;2479;-55
2023/03/02 11:29:40;;;;;;;;;;;;;;;20.04;34.19;95485.78;10486701;28;2081;-54
2023/03/02 11:34:59;;;;;;;;;;;;;;;20.07;33.96;95487.09;10478909;28;2270;-53
2023/03/02 11:40:21;;;;;;;;;;;;;;;20.08;33.88;95478.91;10476537;28;2106;-54
2023/03/02 11:45:23;;;;;;;;;;;;;;;20.14;33.77;95469.13;10464779;28;2325;-53
2023/03/02 11:50:23;;;;;;;;;;;;;;;20.15;33.67;95475.97;10485070;28;2300;-55
2023/03/02 11:55:25;;;;;;;;;;;;;;;20.16;33.97;95469.63;10468444;28;2362;-55
2023/03/02 12:00:38;;;;;;;;;;;;;;;20.16;34.08;95459.91;10477314;28;2323;-55
2023/03/02 12:05:39;;;;;;;;;;;;;;;20.16;34.30;95459.09;10478453;28;2117;-55
2023/03/02 12:10:40;;;;;;;;;;;;;;;20.16;34.31;95453.84;10477282;28;2346;-53
2023/03/02 12:15:43;;;;;;;;;;;;;;;20.15;34.13;95453.03;10459037;28;2467;-56
2023/03/02 12:20:43;;;;;;;;;;;;;;;20.16;34.34;95444.09;10476193;28;2034;-55
2023/03/02 12:25:50;;;;;;;;;;;;;;;20.16;34.42;95449.38;10475755;28;2348;-52
2023/03/02 12:31:03;;;;;;;;;;;;;;;20.17;34.43;95455.41;10475841;28;2318;-53
2023/03/02 12:36:11;;;;;;;;;;;;;;;20.19;34.13;95453.28;10477366;28;2320;-53
2023/03/02 12:41:42;;;;;;;;;;;;;;;20.19;34.13;95446.22;10456756;28;2320;-54
2023/03/02 12:46:43;;;;;;;;;;;;;;;20.22;34.20;95452.75;10455987;28;2093;-54
2023/03/02 12:51:51;;;;;;;;;;;;;;;20.25;34.32;95452.22;10467500;28;2441;-54
2023/03/02 12:57:12;;;;;;;;;;;;;;;20.29;34.37;95445.31;10481249;28;2633;-55
2023/03/02 13:02:18;;;;;;;;;;;;;;;20.32;34.43;95434.22;10475942;28;2054;-53
2023/03/02 13:07:19;;;;;;;;;;;;;;;20.34;34.44;95432.09;10478491;28;2067;-53
2023/03/02 13:12:19;;;;;;;;;;;;;;;20.39;33.96;95432.06;10474823;28;2326;-54
2023/03/02 13:17:20;;;;;;;;;;;;;;;20.42;34.08;95431.50;10480506;28;2115;-53
2023/03/02 13:22:21;;;;;;;;;;;;;;;20.46;34.09;95437.00;10477990;28;2328;-52
2023/03/02 13:27:22;;;;;;;;;;;;;;;20.50;34.20;95425.63;10476819;28;2325;-55
2023/03/02 13:32:24;;;;;;;;;;;;;;;20.55;33.98;95424.75;10479692;28;2231;-54
2023/03/02 13:37:44;;;;;;;;;;;;;;;20.57;33.97;95418.16;10474853;28;2325;-55
2023/03/02 13:42:45;;;;;;;;;;;;;;;20.60;34.01;95414.97;10475268;28;2327;-55
2023/03/02 13:47:46;;;;;;;;;;;;;;;20.63;34.06;95409.13;10475127;28;2553;-53
2023/03/02 13:52:46;;;;;;;;;;;;;;;20.69;34.02;95410.63;10458657;28;2010;-55
2023/03/02 13:57:48;;;;;;;;;;;;;;;20.71;33.92;95405.88;10479914;28;2441;-53
2023/03/02 14:02:49;;;;;;;;;;;;;;;20.73;33.79;95411.63;10463020;28;2307;-54
2023/03/02 14:07:49;;;;;;;;;;;;;;;20.73;34.30;95414.28;10474163;28;2331;-55
2023/03/02 14:12:51;;;;;;;;;;;;;;;20.80;33.93;95408.66;10478822;28;2386;-55
2023/03/02 14:17:52;;;;;;;;;;;;;;;20.84;34.10;95407.03;10475154;28;2255;-55
2023/03/02 14:22:53;;;;;;;;;;;;;;;20.84;33.74;95407.81;10459641;28;2684;-55
2023/03/02 14:27:53;;;;;;;;;;;;;;;20.82;33.74;95404.69;10467659;28;2015;-54
2023/03/02 14:32:54;;;;;;;;;;;;;;;20.82;33.61;95409.16;10470785;28;2250;-53
2023/03/02 14:37:54;;;;;;;;;;;;;;;20.78;33.65;95398.41;10452318;28;2299;-54
2023/03/02 14:42:54;;;;;;;;;;;;;;;20.74;33.71;95397.41;10471258;28;2519;-56
2023/03/02 14:47:54;;;;;;;;;;;;;;;20.70;32.61;95401.69;10469370;28;2404;-55
2023/03/02 14:52:56;;;;;;;;;;;;;;;20.59;33.31;95399.44;10452056;28;2258;-53
2023/03/02 14:57:57;;;;;;;;;;;;;;;20.52;32.96;95401.66;10489317;28;2369;-55
2023/03/02 15:03:05;;;;;;;;;;;;;;;20.48;33.41;95398.78;10453879;28;2381;-55
2023/03/02 15:08:08;;;;;;;;;;;;;;;20.46;33.60;95394.88;10477615;28;2250;-52
2023/03/02 15:13:09;;;;;;;;;;;;;;;20.41;33.90;95400.19;10482823;28;2353;-53
2023/03/02 15:18:10;;;;;;;;;;;;;;;20.38;34.20;95401.53;10470800;28;2259;-51
2023/03/02 15:23:10;;;;;;;;;;;;;;;20.34;34.19;95408.41;10494481;28;2409;-54
2023/03/02 15:28:11;;;;;;;;;;;;;;;20.30;34.21;95410.03;10475574;28;2320;-55
2023/03/02 15:33:11;;;;;;;;;;;;;;;20.26;34.38;95415.06;10478349;28;2298;-56
2023/03/02 15:38:11;;;;;;;;;;;;;;;20.24;34.46;95421.69;10481599;28;2428;-52
2023/03/02 15:43:12;;;;;;;;;;;;;;;20.21;34.60;95427.50;10480517;28;2281;-53
2023/03/02 15:48:12;;;;;;;;;;;;;;;20.17;34.57;95424.59;10479424;28;2359;-55
2023/03/02 15:53:13;;;;;;;;;;;;;;;20.15;34.62;95431.22;10485057;28;2313;-54
2023/03/02 15:58:13;;;;;;;;;;;;;;;20.10;34.62;95431.25;10473858;28;2316;-53
2023/03/02 16:03:14;;;;;;;;;;;;;;;20.06;34.47;95444.19;10478126;28;2382;-54
2023/03/02 16:08:15;;;;;;;;;;;;;;;20.02;34.47;95451.06;10458502;28;2027;-54
2023/03/02 16:13:15;;;;;;;;;;;;;;;19.99;34.39;95459.50;10477988;28;2365;-56
2023/03/02 16:18:16;;;;;;;;;;;;;;;19.96;34.33;95464.53;10476056;28;2441;-51
2023/03/02 16:23:16;;;;;;;;;;;;;;;19.92;34.23;95458.28;10480316;28;2056;-51
2023/03/02 16:28:17;;;;;;;;;;;;;;;19.88;34.27;95467.78;10487173;28;2372;-55
2023/03/02 16:33:18;;;;;;;;;;;;;;;19.91;35.03;95477.72;10479304;28;2318;-55
2023/03/02 16:38:18;;;;;;;;;;;;;;;19.92;35.07;95482.75;10478581;28;2354;-56
2023/03/02 16:43:19;;;;;;;;;;;;;;;19.92;35.00;95489.84;10473134;28;1977;-55
2023/03/02 16:48:20;;;;;;;;;;;;;;;19.90;34.78;95494.59;10478747;28;2336;-54
2023/03/02 16:53:21;;;;;;;;;;;;;;;19.89;34.78;95498.25;10473062;28;2325;-53
2023/03/02 16:58:22;;;;;;;;;;;;;;;19.86;34.44;95517.25;10483131;28;2104;-55
2023/03/02 17:03:23;;;;;;;;;;;;;;;19.84;34.36;95522.00;10482433;28;2265;-56
2023/03/02 17:08:24;;;;;;;;;;;;;;;19.79;34.37;95522.00;10468700;28;2317;-54
2023/03/02 17:13:25;;;;;;;;;;;;;;;19.78;34.49;95531.78;10470017;28;2331;-54
2023/03/02 17:18:26;;;;;;;;;;;;;;;19.76;34.36;95527.84;10464761;28;2324;-55
2023/03/02 17:23:26;;;;;;;;;;;;;;;19.73;34.40;95529.16;10461491;28;2261;-54
2023/03/02 17:28:27;;;;;;;;;;;;;;;19.74;34.25;95540.47;10477649;28;2729;-54
2023/03/02 17:33:28;;;;;;;;;;;;;;;19.71;34.30;95554.94;10481099;28;2414;-55
2023/03/02 17:38:28;;;;;;;;;;;;;;;19.73;34.08;95559.91;10482502;28;2266;-54
2023/03/02 17:43:31;;;;;;;;;;;;;;;19.71;33.87;95572.56;10476767;28;2349;-52
2023/03/02 17:48:31;;;;;;;;;;;;;;;19.70;34.01;95577.03;10485595;28;2248;-55
2023/03/02 17:53:32;;;;;;;;;;;;;;;19.70;33.59;95576.25;10477166;28;2425;-53
2023/03/02 17:58:32;;;;;;;;;;;;;;;19.69;33.69;95579.94;10475115;28;2246;-54
2023/03/02 18:03:33;;;;;;;;;;;;;;;19.72;33.87;95585.44;10476353;28;2265;-54
2023/03/02 18:08:33;;;;;;;;;;;;;;;19.74;34.06;95583.31;10475256;28;2321;-53
2023/03/02 18:13:43;;;;;;;;;;;;;;;19.74;34.30;95590.44;10469407;28;2015;-54
2023/03/02 18:18:44;;;;;;;;;;;;;;;19.77;34.63;95589.88;10476542;28;2312;-53
2023/03/02 18:23:45;;;;;;;;;;;;;;;19.78;35.06;95588.84;10474735;28;1994;-54
2023/03/02 18:28:46;;;;;;;;;;;;;;;19.81;35.00;95593.53;10480013;28;2218;-59
2023/03/02 18:33:46;;;;;;;;;;;;;;;19.83;35.15;95607.19;10473823;28;2030;-52
2023/03/02 18:38:47;;;;;;;;;;;;;;;19.90;35.93;95605.06;10475624;28;2362;-52
2023/03/02 18:43:48;;;;;;;;;;;;;;;19.91;36.20;95607.41;10481136;28;2281;-54
2023/03/02 18:48:49;;;;;;;;;;;;;;;19.92;35.92;95605.59;10479576;28;2350;-55
2023/03/02 18:53:50;;;;;;;;;;;;;;;19.92;35.86;95609.00;10472252;28;2476;-57
2023/03/02 18:58:50;;;;;;;;;;;;;;;19.95;35.98;95615.53;10477226;28;2021;-57
2023/03/02 19:03:52;;;;;;;;;;;;;;;19.96;35.89;95614.50;10475276;28;2271;-56
2023/03/02 19:08:52;;;;;;;;;;;;;;;19.93;35.55;95621.09;10476489;28;2323;-55
2023/03/02 19:13:53;;;;;;;;;;;;;;;19.95;35.68;95626.06;10476653;28;2307;-57
2023/03/02 19:18:54;;;;;;;;;;;;;;;19.96;35.31;95628.44;10477502;28;2301;-57
2023/03/02 19:23:56;;;;;;;;;;;;;;;20.05;35.36;95626.81;10472971;28;2470;-53
2023/03/02 19:28:56;;;;;;;;;;;;;;;20.08;35.19;95630.75;10474435;28;2260;-56
2023/03/02 19:33:56;;;;;;;;;;;;;;;20.08;35.23;95638.63;10476575;28;2468;-54
2023/03/02 19:38:57;;;;;;;;;;;;;;;20.10;35.06;95639.16;10477475;28;2278;-55
2023/03/02 19:43:58;;;;;;;;;;;;;;;20.12;35.03;95644.91;10479140;28;2280;-54
2023/03/02 19:48:59;;;;;;;;;;;;;;;20.13;34.80;95649.13;10481498;28;2391;-54
2023/03/02 19:53:59;;;;;;;;;;;;;;;20.15;34.92;95649.66;10473310;28;2314;-54
2023/03/02 19:59:00;;;;;;;;;;;;;;;20.17;34.58;95650.16;10492598;28;2060;-55
2023/03/02 20:04:10;;;;;;;;;;;;;;;20.33;34.86;95656.94;10486453;28;2288;-54
2023/03/02 20:09:13;;;;;;;;;;;;;;;20.43;34.61;95651.59;10478259;28;2270;-53
2023/03/02 20:14:14;;;;;;;;;;;;;;;20.54;34.36;95653.09;10492400;28;2343;-51
2023/03/02 20:19:15;;;;;;;;;;;;;;;20.62;34.48;95644.59;10485261;28;2065;-54
2023/03/02 20:24:16;;;;;;;;;;;;;;;20.70;34.05;95649.28;10470977;28;2323;-53
2023/03/02 20:29:16;;;;;;;;;;;;;;;20.76;34.23;95644.75;10489748;28;2281;-55
2023/03/02 20:34:17;;;;;;;;;;;;;;;20.82;33.95;95643.63;10480996;28;2117;-53
2023/03/02 20:39:18;;;;;;;;;;;;;;;20.89;33.74;95647.53;10479165;28;2226;-55
2023/03/02 20:44:21;;;;;;;;;;;;;;;20.92;33.52;95652.22;10438541;28;2323;-54
2023/03/02 20:49:27;;;;;;;;;;;;;;;20.95;33.64;95646.41;10482541;28;2285;-53
2023/03/02 20:54:29;;;;;;;;;;;;;;;20.96;33.69;95652.44;10449674;28;2338;-54
2023/03/02 20:59:30;;;;;;;;;;;;;;;20.96;33.71;95655.09;10485892;28;2175;-54
2023/03/02 21:04:31;;;;;;;;;;;;;;;20.95;33.46;95658.81;10487282;28;2084;-53
2023/03/02 21:09:32;;;;;;;;;;;;;;;20.93;33.61;95664.34;10488834;28;2322;-54
2023/03/02 21:14:32;;;;;;;;;;;;;;;20.94;33.62;95668.53;10474950;28;2291;-55
2023/03/02 21:19:33;;;;;;;;;;;;;;;20.91;33.51;95666.47;10491205;28;2260;-55
2023/03/02 21:24:34;;;;;;;;;;;;;;;20.92;33.43;95669.88;10479720;28;2307;-55
2023/03/02 21:29:34;;;;;;;;;;;;;;;20.89;33.26;95667.81;10472116;28;2343;-55
2023/03/02 21:34:35;;;;;;;;;;;;;;;20.89;33.61;95665.97;10484535;28;2363;-55
2023/03/02 21:39:36;;;;;;;;;;;;;;;20.88;33.40;95661.75;10468601;28;2450;-54
2023/03/02 21:44:36;;;;;;;;;;;;;;;20.85;33.22;95657.06;10496801;28;2062;-54
2023/03/02 21:49:37;;;;;;;;;;;;;;;20.81;33.43;95666.53;10487526;28;2046;-54
2023/03/02 21:54:37;;;;;;;;;;;;;;;20.80;33.14;95665.00;10482596;28;2351;-53
2023/03/02 21:59:37;;;;;;;;;;;;;;;20.79;33.39;95663.41;10463076;28;2338;-53
2023/03/02 22:04:37;;;;;;;;;;;;;;;20.61;33.28;95669.34;10467895;28;2519;-55
2023/03/02 22:09:38;;;;;;;;;;;;;;;20.47;33.18;95671.03;10467908;28;2312;-52
2023/03/02 22:14:38;;;;;;;;;;;;;;;20.35;32.75;95669.81;10470330;28;2266;-52
2023/03/02 22:19:38;;;;;;;;;;;;;;;20.25;32.84;95665.41;10472619;28;2306;-55
2023/03/02 22:24:39;;;;;;;;;;;;;;;20.12;32.82;95669.41;10459406;28;2735;-54
2023/03/02 22:29:40;;;;;;;;;;;;;;;20.02;32.94;95666.81;10450768;28;2443;-51
2023/03/02 22:34:40;;;;;;;;;;;;;;;19.94;32.82;95667.41;10465073;28;2306;-54
2023/03/02 22:39:41;;;;;;;;;;;;;;;19.85;32.87;95663.75;10456149;28;2273;-52
2023/03/02 22:44:43;;;;;;;;;;;;;;;19.79;32.94;95669.31;10475754;28;2290;-55
2023/03/02 22:49:55;;;;;;;;;;;;;;;19.72;32.83;95669.59;10475761;28;2026;-55
2023/03/02 22:54:55;;;;;;;;;;;;;;;19.67;32.92;95674.88;10450982;28;2289;-52
2023/03/02 23:00:22;;;;;;;;;;;;;;;19.62;32.86;95667.00;10471826;28;2077;-54
2023/03/02 23:05:33;;;;;;;;;;;;;;;19.57;32.72;95667.03;10469832;28;2320;-54
2023/03/02 23:10:33;;;;;;;;;;;;;;;19.52;32.87;95674.94;10475968;28;2328;-53
2023/03/02 23:15:35;;;;;;;;;;;;;;;19.49;32.78;95667.59;10470045;28;2435;-54
2023/03/02 23:20:36;;;;;;;;;;;;;;;19.43;32.75;95666.81;10470981;28;2196;-54
2023/03/02 23:25:37;;;;;;;;;;;;;;;19.40;32.84;95667.34;10468585;28;2370;-54
2023/03/02 23:30:37;;;;;;;;;;;;;;;19.36;32.79;95668.94;10455749;28;2293;-52
2023/03/02 23:35:38;;;;;;;;;;;;;;;19.33;32.64;95672.09;10476673;28;2281;-55
2023/03/02 23:40:40;;;;;;;;;;;;;;;19.31;32.60;95668.91;10474376;28;2334;-53
2023/03/02 23:45:40;;;;;;;;;;;;;;;19.28;32.80;95661.56;10476584;28;2301;-54
2023/03/02 23:50:46;;;;;;;;;;;;;;;19.24;32.69;95668.44;10468708;28;2358;-51
2023/03/02 23:55:47;;;;;;;;;;;;;;;19.23;32.68;95669.47;10473304;28;2692;-55
